createdAt,value
2022-10-05T00:00:24.800Z,96910.91
2022-10-05T00:04:28.567Z,96911.52
2022-10-05T00:08:17.753Z,96917.27
2022-10-05T00:12:09.479Z,96920.61
2022-10-05T00:15:58.380Z,96922.90
2022-10-05T00:19:47.297Z,96923.17
2022-10-05T00:23:36.153Z,96921.91
2022-10-05T00:27:25.406Z,96923.17
2022-10-05T00:31:14.360Z,96926.72
2022-10-05T00:35:03.239Z,96922.94
2022-10-05T00:38:36.421Z,96922.06
2022-10-05T00:42:25.231Z,96923.39
2022-10-05T00:46:13.874Z,96926.33
2022-10-05T00:50:05.769Z,96929.91
2022-10-05T00:53:54.672Z,96934.10
2022-10-05T00:57:38.638Z,96938.01
2022-10-05T01:01:09.634Z,96945.73
2022-10-05T01:05:13.101Z,96948.09
2022-10-05T01:09:13.440Z,96953.30
2022-10-05T01:13:11.070Z,96952.39
2022-10-05T01:17:01.584Z,96955.19
2022-10-05T01:21:05.261Z,96961.11
2022-10-05T01:24:55.412Z,96964.27
2022-10-05T01:28:56.073Z,96966.73
2022-10-05T01:32:24.603Z,96969.19
2022-10-05T01:36:40.762Z,96974.98
2022-10-05T01:40:35.605Z,96975.00
2022-10-05T01:44:33.581Z,96979.70
2022-10-05T01:48:43.332Z,96975.73
2022-10-05T01:52:53.090Z,96974.15
2022-10-05T01:56:50.608Z,96971.02
2022-10-05T02:05:22.908Z,96970.50
2022-10-05T02:09:20.485Z,96967.20
2022-10-05T02:13:09.378Z,96974.76
2022-10-05T02:17:01.273Z,96971.30
2022-10-05T02:20:50.273Z,96975.35
2022-10-05T02:24:39.106Z,96970.98
2022-10-05T02:28:34.071Z,96970.69
2022-10-05T02:32:35.006Z,96966.77
2022-10-05T02:36:23.983Z,96970.05
2022-10-05T02:40:15.340Z,96975.20
2022-10-05T02:44:24.850Z,96981.44
2022-10-05T02:48:31.443Z,96986.95
2022-10-05T02:52:35.301Z,96988.52
2022-10-05T02:56:24.178Z,96988.39
2022-10-05T03:00:15.868Z,96987.76
2022-10-05T03:04:10.741Z,96989.55
2022-10-05T03:08:11.340Z,96991.14
2022-10-05T03:12:06.360Z,96994.41
2022-10-05T03:15:58.138Z,96997.83
2022-10-05T03:19:58.847Z,97002.48
2022-10-05T03:23:47.701Z,97006.30
2022-10-05T03:27:54.909Z,97015.96
2022-10-05T03:31:49.840Z,97021.13
2022-10-05T03:35:41.535Z,97020.48
2022-10-05T03:39:51.420Z,97021.52
2022-10-05T03:43:55.452Z,97022.25
2022-10-05T03:47:50.234Z,97020.48
2022-10-05T03:51:51.043Z,97020.45
2022-10-05T03:55:19.516Z,97020.79
2022-10-05T03:59:08.420Z,97024.06
2022-10-05T04:03:15.419Z,97026.15
2022-10-05T04:07:07.049Z,97031.59
2022-10-05T04:11:04.769Z,97032.99
2022-10-05T04:14:58.914Z,97033.69
2022-10-05T04:18:47.917Z,97034.68
2022-10-05T04:22:38.105Z,97035.99
2022-10-05T04:26:26.928Z,97040.66
2022-10-05T04:30:24.913Z,97047.41
2022-10-05T04:34:13.806Z,97055.81
2022-10-05T04:37:47.043Z,97062.79
2022-10-05T04:41:35.278Z,97068.30
2022-10-05T04:45:42.555Z,97068.89
2022-10-05T04:49:40.109Z,97072.70
2022-10-05T04:53:29.382Z,97072.34
2022-10-05T04:57:18.216Z,97075.91
2022-10-05T05:01:11.290Z,97076.70
2022-10-05T05:05:09.046Z,97077.02
2022-10-05T05:08:59.474Z,97079.11
2022-10-05T05:13:09.505Z,97077.89
2022-10-05T05:17:16.449Z,97082.48
2022-10-05T05:21:20.432Z,97083.77
2022-10-05T05:25:24.017Z,97086.11
2022-10-05T05:29:19.855Z,97089.92
2022-10-05T05:33:12.702Z,97095.05
2022-10-05T05:36:23.523Z,97102.13
2022-10-05T05:39:39.984Z,97106.11
2022-10-05T05:42:26.187Z,97107.72
2022-10-05T05:45:00.276Z,97109.79
2022-10-05T05:47:39.078Z,97112.13
2022-10-05T05:50:32.372Z,97110.34
2022-10-05T05:53:10.533Z,97113.31
2022-10-05T05:55:50.826Z,97109.35
2022-10-05T05:58:53.731Z,97105.65
2022-10-05T06:01:44.319Z,97101.38
2022-10-05T06:04:33.051Z,97100.39
2022-10-05T06:07:03.579Z,97099.70
2022-10-05T06:09:47.276Z,97101.92
2022-10-05T06:12:34.795Z,97105.90
2022-10-05T06:15:22.119Z,97108.75
2022-10-05T06:17:54.864Z,97119.38
2022-10-05T06:20:33.711Z,97124.28
2022-10-05T06:23:07.638Z,97127.10
2022-10-05T06:26:19.295Z,97133.13
2022-10-05T06:29:11.651Z,97139.55
2022-10-05T06:31:57.910Z,97142.57
2022-10-05T06:34:58.644Z,97142.52
2022-10-05T06:37:30.157Z,97143.73
2022-10-05T06:40:33.411Z,97142.06
2022-10-05T06:43:32.764Z,97137.69
2022-10-05T06:46:23.971Z,97138.59
2022-10-05T06:49:53.912Z,97137.38
2022-10-05T06:53:33.417Z,97140.57
2022-10-05T06:56:34.902Z,97143.98
2022-10-05T06:59:07.268Z,97149.86
2022-10-05T07:02:27.424Z,97154.11
2022-10-05T07:05:37.833Z,97152.91
2022-10-05T07:09:03.805Z,97152.49
2022-10-05T07:12:04.838Z,97157.18
2022-10-05T07:15:07.249Z,97157.20
2022-10-05T07:18:36.252Z,97156.89
2022-10-05T07:21:43.325Z,97158.38
2022-10-05T07:25:16.149Z,97164.41
2022-10-05T07:28:55.491Z,97164.98
2022-10-05T07:32:49.732Z,97165.74
2022-10-05T07:36:38.188Z,97167.56
2022-10-05T07:40:47.697Z,97175.22
2022-10-05T07:44:20.237Z,97183.20
2022-10-05T07:48:20.755Z,97189.81
2022-10-05T07:51:19.175Z,97200.50
2022-10-05T07:54:06.312Z,97201.83
2022-10-05T07:56:58.870Z,97195.75
2022-10-05T07:59:38.993Z,97189.27
2022-10-05T08:02:55.771Z,97186.27
2022-10-05T08:05:47.397Z,97175.73
2022-10-05T08:08:42.349Z,97171.20
2022-10-05T08:11:54.733Z,97168.64
2022-10-05T08:14:54.399Z,97174.39
2022-10-05T08:18:09.499Z,97174.04
2022-10-05T08:20:50.238Z,97176.80
2022-10-05T08:23:40.811Z,97174.59
2022-10-05T08:26:27.697Z,97167.48
2022-10-05T08:29:14.778Z,97162.94
2022-10-05T08:31:56.928Z,97172.59
2022-10-05T08:34:50.798Z,97184.36
2022-10-05T08:37:21.453Z,97195.75
2022-10-05T08:40:14.640Z,97203.40
2022-10-05T08:42:52.011Z,97210.68
2022-10-05T08:45:36.745Z,97213.83
2022-10-05T08:48:21.587Z,97208.69
2022-10-05T08:51:33.376Z,97209.52
2022-10-05T08:54:27.807Z,97218.92
2022-10-05T08:56:57.345Z,97224.44
2022-10-05T08:59:46.341Z,97232.21
2022-10-05T09:02:26.212Z,97233.21
2022-10-05T09:05:10.316Z,97233.35
2022-10-05T09:08:00.900Z,97239.86
2022-10-05T09:10:48.164Z,97234.70
2022-10-05T09:13:38.265Z,97233.20
2022-10-05T09:16:13.973Z,97236.94
2022-10-05T09:19:03.559Z,97243.61
2022-10-05T09:22:03.020Z,97245.08
2022-10-05T09:24:58.493Z,97250.59
2022-10-05T09:28:16.000Z,97249.34
2022-10-05T09:31:04.117Z,97245.88
2022-10-05T09:33:39.341Z,97245.77
2022-10-05T09:36:33.598Z,97245.16
2022-10-05T09:39:35.697Z,97249.45
2022-10-05T09:42:39.813Z,97247.19
2022-10-05T09:45:37.391Z,97244.04
2022-10-05T09:48:26.050Z,97239.73
2022-10-05T09:51:07.373Z,97239.04
2022-10-05T09:53:54.785Z,97234.17
2022-10-05T09:56:58.800Z,97226.26
2022-10-05T10:03:19.669Z,97218.77
2022-10-05T10:06:22.972Z,97214.20
2022-10-05T10:08:55.174Z,97207.88
2022-10-05T10:11:49.184Z,97205.09
2022-10-05T10:14:34.925Z,97203.51
2022-10-05T10:17:31.796Z,97198.21
2022-10-05T10:20:00.182Z,97197.13
2022-10-05T10:22:35.491Z,97193.24
2022-10-05T10:25:22.257Z,97191.59
2022-10-05T10:28:25.957Z,97193.39
2022-10-05T10:31:26.612Z,97197.13
2022-10-05T10:34:19.233Z,97196.00
2022-10-05T10:37:35.763Z,97195.18
2022-10-05T10:40:20.353Z,97195.98
2022-10-05T10:43:14.512Z,97197.67
2022-10-05T10:45:54.791Z,97199.46
2022-10-05T10:48:29.810Z,97202.62
2022-10-05T10:51:20.433Z,97202.19
2022-10-05T10:54:17.730Z,97203.55
2022-10-05T10:57:01.748Z,97195.14
2022-10-05T10:59:45.947Z,97188.19
2022-10-05T11:02:39.023Z,97186.20
2022-10-05T11:05:33.761Z,97179.05
2022-10-05T11:08:41.136Z,97169.84
2022-10-05T11:11:29.077Z,97166.88
2022-10-05T11:14:28.669Z,97169.98
2022-10-05T11:17:15.820Z,97170.11
2022-10-05T11:20:28.649Z,97166.20
2022-10-05T11:23:34.229Z,97162.51
2022-10-05T11:26:55.369Z,97160.89
2022-10-05T11:30:40.223Z,97158.63
2022-10-05T11:33:55.155Z,97157.44
2022-10-05T11:36:50.529Z,97154.86
2022-10-05T11:39:53.514Z,97155.73
2022-10-05T11:43:05.266Z,97156.88
2022-10-05T11:47:02.863Z,97155.62
2022-10-05T11:50:44.993Z,97153.73
2022-10-05T11:54:19.605Z,97149.95
2022-10-05T11:57:38.278Z,97156.38
2022-10-05T12:01:31.274Z,97157.34
2022-10-05T12:05:25.949Z,97159.31
2022-10-05T12:09:15.200Z,97160.96
2022-10-05T12:12:12.596Z,97158.63
2022-10-05T12:15:37.410Z,97156.91
2022-10-05T12:19:24.820Z,97158.02
2022-10-05T12:22:43.186Z,97157.34
2022-10-05T12:26:11.781Z,97148.28
2022-10-05T12:29:51.225Z,97146.16
2022-10-05T12:33:51.996Z,97145.40
2022-10-05T12:37:38.198Z,97146.48
2022-10-05T12:40:38.622Z,97146.83
2022-10-05T12:44:31.808Z,97152.50
2022-10-05T12:48:00.091Z,97152.40
2022-10-05T12:51:40.462Z,97149.36
2022-10-05T12:55:14.893Z,97145.29
2022-10-05T12:58:31.566Z,97145.81
2022-10-05T13:02:18.168Z,97152.42
2022-10-05T13:06:07.308Z,97155.86
2022-10-05T13:10:22.954Z,97152.80
2022-10-05T13:14:32.334Z,97147.75
2022-10-05T13:18:14.466Z,97147.98
2022-10-05T13:22:10.844Z,97143.61
2022-10-05T13:25:06.037Z,97142.39
2022-10-05T13:27:58.499Z,97139.34
2022-10-05T13:31:26.754Z,97140.68
2022-10-05T13:35:31.548Z,97144.52
2022-10-05T13:39:28.437Z,97135.45
2022-10-05T13:42:57.020Z,97131.05
2022-10-05T13:46:33.042Z,97131.73
2022-10-05T13:50:16.481Z,97130.11
2022-10-05T13:53:26.973Z,97128.79
2022-10-05T13:56:57.874Z,97127.77
2022-10-05T14:00:04.224Z,97124.02
2022-10-05T14:02:54.634Z,97121.03
2022-10-05T14:06:07.082Z,97125.83
2022-10-05T14:08:48.137Z,97124.41
2022-10-05T14:11:53.909Z,97121.50
2022-10-05T14:15:11.019Z,97120.27
2022-10-05T14:18:21.624Z,97123.20
2022-10-05T14:21:12.111Z,97125.35
2022-10-05T14:23:40.243Z,97122.52
2022-10-05T14:26:34.370Z,97118.75
2022-10-05T14:29:20.124Z,97115.59
2022-10-05T14:32:14.448Z,97112.00
2022-10-05T14:35:08.217Z,97106.52
2022-10-05T14:38:06.451Z,97102.98
2022-10-05T14:41:29.575Z,97098.55
2022-10-05T14:44:09.870Z,97100.27
2022-10-05T14:46:56.121Z,97103.22
2022-10-05T14:49:37.490Z,97103.09
2022-10-05T14:52:29.233Z,97103.98
2022-10-05T14:55:18.062Z,97108.27
2022-10-05T14:58:10.123Z,97109.30
2022-10-05T15:01:03.414Z,97111.23
2022-10-05T15:03:50.243Z,97112.27
2022-10-05T15:06:37.598Z,97112.00
2022-10-05T15:09:38.182Z,97112.29
2022-10-05T15:12:09.460Z,97119.00
2022-10-05T15:14:45.387Z,97123.31
2022-10-05T15:17:27.689Z,97124.91
2022-10-05T15:20:10.658Z,97122.46
2022-10-05T15:22:46.527Z,97123.73
2022-10-05T15:25:37.693Z,97130.67
2022-10-05T15:28:11.501Z,97129.98
2022-10-05T15:30:51.581Z,97131.30
2022-10-05T15:33:28.959Z,97130.10
2022-10-05T15:36:16.215Z,97134.91
2022-10-05T15:39:04.196Z,97132.75
2022-10-05T15:41:56.277Z,97129.73
2022-10-05T15:44:30.327Z,97132.66
2022-10-05T15:47:05.702Z,97137.58
2022-10-05T15:49:39.876Z,97144.37
2022-10-05T15:52:52.407Z,97141.20
2022-10-05T15:55:26.020Z,97136.95
2022-10-05T15:58:38.798Z,97139.81
2022-10-05T16:01:12.070Z,97143.77
2022-10-05T16:03:49.310Z,97141.77
2022-10-05T16:06:41.860Z,97144.75
2022-10-05T16:09:49.861Z,97151.17
2022-10-05T16:12:42.819Z,97151.88
2022-10-05T16:15:16.898Z,97146.65
2022-10-05T16:18:05.784Z,97147.72
2022-10-05T16:21:00.136Z,97150.05
2022-10-05T16:23:28.335Z,97154.77
2022-10-05T16:26:09.236Z,97162.13
2022-10-05T16:28:58.921Z,97164.96
2022-10-05T16:31:26.729Z,97170.25
2022-10-05T16:34:17.318Z,97173.55
2022-10-05T16:37:25.704Z,97175.71
2022-10-05T16:40:13.073Z,97176.66
2022-10-05T16:43:06.226Z,97177.45
2022-10-05T16:45:56.549Z,97179.20
2022-10-05T16:48:28.940Z,97186.88
2022-10-05T16:51:42.901Z,97186.98
2022-10-05T16:54:32.801Z,97185.31
2022-10-05T16:57:27.557Z,97187.69
2022-10-05T17:00:38.305Z,97186.75
2022-10-05T17:03:27.491Z,97187.50
2022-10-05T17:06:27.453Z,97187.52
2022-10-05T17:09:36.376Z,97194.31
2022-10-05T17:12:19.000Z,97203.13
2022-10-05T17:15:22.682Z,97203.05
2022-10-05T17:18:50.048Z,97200.76
2022-10-05T17:22:00.525Z,97200.12
2022-10-05T17:24:48.765Z,97204.71
2022-10-05T17:27:51.055Z,97203.58
2022-10-05T17:30:39.060Z,97206.31
2022-10-05T17:33:37.763Z,97205.21
2022-10-05T17:36:40.031Z,97209.85
2022-10-05T17:39:47.060Z,97211.08
2022-10-05T17:42:30.204Z,97220.36
2022-10-05T17:44:59.764Z,97223.60
2022-10-05T17:47:55.848Z,97224.86
2022-10-05T17:51:03.951Z,97219.02
2022-10-05T17:54:02.940Z,97219.32
2022-10-05T17:56:47.913Z,97227.57
2022-10-05T17:59:59.511Z,97232.21
2022-10-05T18:02:36.949Z,97231.26
2022-10-05T18:05:05.139Z,97236.48
2022-10-05T18:07:34.890Z,97231.48
2022-10-05T18:10:11.909Z,97224.02
2022-10-05T18:12:39.817Z,97217.95
2022-10-05T18:15:07.897Z,97218.55
2022-10-05T18:17:51.532Z,97216.39
2022-10-05T18:20:28.748Z,97214.02
2022-10-05T18:23:02.732Z,97213.20
2022-10-05T18:25:39.478Z,97208.85
2022-10-05T18:28:39.985Z,97207.02
2022-10-05T18:31:26.668Z,97196.84
2022-10-05T18:33:57.731Z,97194.92
2022-10-05T18:36:47.099Z,97197.77
2022-10-05T18:39:32.688Z,97195.40
2022-10-05T18:42:42.351Z,97196.89
2022-10-05T18:45:35.519Z,97202.17
2022-10-05T18:48:06.873Z,97203.48
2022-10-05T18:50:49.242Z,97203.00
2022-10-05T18:53:26.136Z,97211.07
2022-10-05T18:56:02.388Z,97210.88
2022-10-05T18:58:33.384Z,97211.45
2022-10-05T19:01:23.173Z,97212.39
2022-10-05T19:03:51.332Z,97212.55
2022-10-05T19:06:29.894Z,97213.17
2022-10-05T19:09:09.221Z,97215.66
2022-10-05T19:11:48.132Z,97221.80
2022-10-05T19:14:28.322Z,97223.13
2022-10-05T19:17:15.887Z,97226.77
2022-10-05T19:20:03.508Z,97226.76
2022-10-05T19:22:42.276Z,97228.93
2022-10-05T19:25:36.924Z,97229.80
2022-10-05T19:28:37.195Z,97232.65
2022-10-05T19:31:23.420Z,97234.38
2022-10-05T19:34:09.090Z,97233.84
2022-10-05T19:36:46.136Z,97230.27
2022-10-05T19:39:36.284Z,97231.77
2022-10-05T19:42:17.190Z,97233.14
2022-10-05T19:45:23.648Z,97232.66
2022-10-05T19:48:05.931Z,97230.81
2022-10-05T19:50:38.832Z,97227.99
2022-10-05T19:53:21.416Z,97227.25
2022-10-05T19:56:30.175Z,97226.55
2022-10-05T19:59:17.201Z,97220.82
2022-10-05T20:02:04.423Z,97215.92
2022-10-05T20:04:41.565Z,97211.61
2022-10-05T20:07:25.353Z,97207.91
2022-10-05T20:10:01.517Z,97206.02
2022-10-05T20:13:32.105Z,97206.64
2022-10-05T20:16:59.406Z,97205.33
2022-10-05T20:19:51.047Z,97209.90
2022-10-05T20:22:32.905Z,97215.73
2022-10-05T20:25:08.950Z,97212.48
2022-10-05T20:27:40.263Z,97213.44
2022-10-05T20:30:21.444Z,97213.89
2022-10-05T20:32:52.199Z,97214.27
2022-10-05T20:35:26.852Z,97213.48
2022-10-05T20:38:00.222Z,97215.80
2022-10-05T20:40:35.825Z,97214.13
2022-10-05T20:43:05.818Z,97214.65
2022-10-05T20:45:34.089Z,97216.90
2022-10-05T20:48:04.443Z,97222.58
2022-10-05T20:50:34.906Z,97220.19
2022-10-05T20:53:11.616Z,97217.80
2022-10-05T20:55:40.208Z,97221.56
2022-10-05T20:58:11.231Z,97218.11
2022-10-05T21:01:03.250Z,97218.10
2022-10-05T21:03:34.632Z,97221.16
2022-10-05T21:06:02.719Z,97218.83
2022-10-05T21:08:33.144Z,97218.00
2022-10-05T21:11:10.534Z,97221.64
2022-10-05T21:13:44.688Z,97220.27
2022-10-05T21:16:23.083Z,97220.48
2022-10-05T21:19:29.645Z,97218.39
2022-10-05T21:22:23.089Z,97214.45
2022-10-05T21:24:51.438Z,97213.63
2022-10-05T21:27:19.653Z,97213.77
2022-10-05T21:29:47.629Z,97211.33
2022-10-05T21:32:15.655Z,97207.02
2022-10-05T21:34:43.700Z,97205.27
2022-10-05T21:37:11.656Z,97202.37
2022-10-05T21:39:39.506Z,97200.66
2022-10-05T21:42:07.471Z,97198.27
2022-10-05T21:44:35.469Z,97194.67
2022-10-05T21:47:04.369Z,97193.39
2022-10-05T21:49:34.322Z,97192.20
2022-10-05T21:52:06.160Z,97191.31
2022-10-05T21:54:52.529Z,97186.95
2022-10-05T21:57:28.710Z,97185.45
2022-10-05T22:00:32.572Z,97184.96
2022-10-05T22:04:00.916Z,97183.77
2022-10-05T22:07:14.765Z,97185.36
2022-10-05T22:10:04.621Z,97187.83
2022-10-05T22:13:02.011Z,97185.67
2022-10-05T22:16:35.812Z,97179.27
2022-10-05T22:19:43.984Z,97185.16
2022-10-05T22:23:12.743Z,97188.79
2022-10-05T22:25:50.160Z,97189.30
2022-10-05T22:28:18.956Z,97188.80
2022-10-05T22:31:03.141Z,97190.95
2022-10-05T22:33:44.272Z,97189.43
2022-10-05T22:36:21.630Z,97190.18
2022-10-05T22:39:25.840Z,97186.69
2022-10-05T22:42:06.983Z,97181.20
2022-10-05T22:44:36.365Z,97174.92
2022-10-05T22:47:52.443Z,97171.67
2022-10-05T22:51:08.605Z,97173.34
2022-10-05T22:53:38.114Z,97169.83
2022-10-05T22:56:34.032Z,97165.15
2022-10-05T22:59:07.506Z,97161.41
2022-10-05T23:02:10.719Z,97160.31
2022-10-05T23:04:45.163Z,97160.08
2022-10-05T23:07:13.129Z,97161.38
2022-10-05T23:09:41.909Z,97156.88
2022-10-05T23:12:10.176Z,97159.23
2022-10-05T23:14:38.065Z,97162.39
2022-10-05T23:17:08.000Z,97161.80
2022-10-05T23:19:35.901Z,97161.45
2022-10-05T23:22:26.454Z,97161.67
2022-10-05T23:24:55.179Z,97161.48
2022-10-05T23:27:43.685Z,97158.50
2022-10-05T23:30:12.874Z,97155.56
2022-10-05T23:32:44.218Z,97153.45
2022-10-05T23:35:13.311Z,97153.84
2022-10-05T23:37:44.464Z,97157.89
2022-10-05T23:40:14.317Z,97160.55
2022-10-05T23:42:42.926Z,97162.52
2022-10-05T23:45:12.367Z,97161.35
2022-10-05T23:47:40.961Z,97162.58
2022-10-05T23:50:10.288Z,97163.31
2022-10-05T23:52:54.311Z,97166.14
2022-10-05T23:55:42.674Z,97165.02
2022-10-05T23:58:12.537Z,97165.09
